sensor_id;sensor_type;location;lat;lon;timestamp;temperature;humidity
43987;DHT22;29650;47.378;8.300;2023-11-19T00:00:07;7.50;99.90
43987;DHT22;29650;47.378;8.300;2023-11-19T00:02:37;7.50;99.90
43987;DHT22;29650;47.378;8.300;2023-11-19T00:05:06;7.50;99.90
43987;DHT22;29650;47.378;8.300;2023-11-19T00:07:35;7.50;99.90
43987;DHT22;29650;47.378;8.300;2023-11-19T00:10:02;7.50;99.90
43987;DHT22;29650;47.378;8.300;2023-11-19T00:12:36;7.60;99.90
43987;DHT22;29650;47.378;8.300;2023-11-19T00:15:04;7.60;99.90
43987;DHT22;29650;47.378;8.300;2023-11-19T00:17:34;7.60;99.90
43987;DHT22;29650;47.378;8.300;2023-11-19T00:20:01;7.50;99.90
43987;DHT22;29650;47.378;8.300;2023-11-19T00:22:32;7.50;99.90
43987;DHT22;29650;47.378;8.300;2023-11-19T00:24:59;7.50;99.90
43987;DHT22;29650;47.378;8.300;2023-11-19T00:27:27;7.50;99.90
43987;DHT22;29650;47.378;8.300;2023-11-19T00:29:54;7.40;99.90
43987;DHT22;29650;47.378;8.300;2023-11-19T00:32:22;7.50;99.90
43987;DHT22;29650;47.378;8.300;2023-11-19T00:34:49;7.50;99.90
43987;DHT22;29650;47.378;8.300;2023-11-19T00:37:16;7.30;99.90
43987;DHT22;29650;47.378;8.300;2023-11-19T00:39:45;7.30;99.90
43987;DHT22;29650;47.378;8.300;2023-11-19T00:42:12;7.40;99.90
43987;DHT22;29650;47.378;8.300;2023-11-19T00:44:40;7.30;99.90
43987;DHT22;29650;47.378;8.300;2023-11-19T00:47:07;7.40;99.90
43987;DHT22;29650;47.378;8.300;2023-11-19T00:49:34;7.50;99.90
43987;DHT22;29650;47.378;8.300;2023-11-19T00:52:01;7.50;99.90
43987;DHT22;29650;47.378;8.300;2023-11-19T00:54:29;7.50;99.90
43987;DHT22;29650;47.378;8.300;2023-11-19T00:56:57;7.50;99.90
43987;DHT22;29650;47.378;8.300;2023-11-19T00:59:24;7.50;99.90
43987;DHT22;29650;47.378;8.300;2023-11-19T01:01:51;7.50;99.90
43987;DHT22;29650;47.378;8.300;2023-11-19T01:04:18;7.60;99.90
43987;DHT22;29650;47.378;8.300;2023-11-19T01:06:45;7.60;99.90
43987;DHT22;29650;47.378;8.300;2023-11-19T01:09:12;7.60;99.90
43987;DHT22;29650;47.378;8.300;2023-11-19T01:11:40;7.60;99.90
43987;DHT22;29650;47.378;8.300;2023-11-19T01:14:09;7.60;99.90
43987;DHT22;29650;47.378;8.300;2023-11-19T01:16:36;7.60;99.90
43987;DHT22;29650;47.378;8.300;2023-11-19T01:19:03;7.60;99.90
43987;DHT22;29650;47.378;8.300;2023-11-19T01:21:30;7.50;99.90
43987;DHT22;29650;47.378;8.300;2023-11-19T01:23:57;7.50;99.90
43987;DHT22;29650;47.378;8.300;2023-11-19T01:26:25;7.50;99.90
43987;DHT22;29650;47.378;8.300;2023-11-19T01:28:52;7.40;99.90
43987;DHT22;29650;47.378;8.300;2023-11-19T01:31:20;7.30;99.90
43987;DHT22;29650;47.378;8.300;2023-11-19T01:33:47;7.30;99.90
43987;DHT22;29650;47.378;8.300;2023-11-19T01:36:14;7.30;99.90
43987;DHT22;29650;47.378;8.300;2023-11-19T01:38:42;7.30;99.90
43987;DHT22;29650;47.378;8.300;2023-11-19T01:41:09;7.50;99.90
43987;DHT22;29650;47.378;8.300;2023-11-19T01:43:36;7.60;99.90
43987;DHT22;29650;47.378;8.300;2023-11-19T01:46:04;7.60;99.90
43987;DHT22;29650;47.378;8.300;2023-11-19T01:48:34;7.60;99.90
43987;DHT22;29650;47.378;8.300;2023-11-19T01:51:03;7.70;99.90
43987;DHT22;29650;47.378;8.300;2023-11-19T01:53:31;7.70;99.90
43987;DHT22;29650;47.378;8.300;2023-11-19T01:55:58;7.70;99.90
43987;DHT22;29650;47.378;8.300;2023-11-19T01:58:25;7.70;99.90
43987;DHT22;29650;47.378;8.300;2023-11-19T02:00:56;7.60;99.90
43987;DHT22;29650;47.378;8.300;2023-11-19T02:03:24;7.70;99.90
43987;DHT22;29650;47.378;8.300;2023-11-19T02:05:53;7.60;99.90
43987;DHT22;29650;47.378;8.300;2023-11-19T02:08:20;7.60;99.90
43987;DHT22;29650;47.378;8.300;2023-11-19T02:10:47;7.60;99.90
43987;DHT22;29650;47.378;8.300;2023-11-19T02:13:14;7.60;99.90
43987;DHT22;29650;47.378;8.300;2023-11-19T02:15:42;7.50;99.90
43987;DHT22;29650;47.378;8.300;2023-11-19T02:18:22;7.50;99.90
43987;DHT22;29650;47.378;8.300;2023-11-19T02:20:54;7.60;99.90
43987;DHT22;29650;47.378;8.300;2023-11-19T02:23:21;7.60;99.90
43987;DHT22;29650;47.378;8.300;2023-11-19T02:26:05;7.60;99.90
43987;DHT22;29650;47.378;8.300;2023-11-19T02:28:36;7.60;99.90
43987;DHT22;29650;47.378;8.300;2023-11-19T02:31:03;7.50;99.90
43987;DHT22;29650;47.378;8.300;2023-11-19T02:33:32;7.50;99.90
43987;DHT22;29650;47.378;8.300;2023-11-19T02:35:58;7.50;99.90
43987;DHT22;29650;47.378;8.300;2023-11-19T02:38:25;7.50;99.90
43987;DHT22;29650;47.378;8.300;2023-11-19T02:40:52;7.60;99.90
43987;DHT22;29650;47.378;8.300;2023-11-19T02:43:19;7.60;99.90
43987;DHT22;29650;47.378;8.300;2023-11-19T02:45:48;7.70;99.90
43987;DHT22;29650;47.378;8.300;2023-11-19T02:48:15;7.70;99.90
43987;DHT22;29650;47.378;8.300;2023-11-19T02:50:42;7.70;99.90
43987;DHT22;29650;47.378;8.300;2023-11-19T02:53:09;7.70;99.90
43987;DHT22;29650;47.378;8.300;2023-11-19T02:55:36;7.80;99.90
43987;DHT22;29650;47.378;8.300;2023-11-19T02:58:06;7.80;99.90
43987;DHT22;29650;47.378;8.300;2023-11-19T03:00:45;7.80;99.90
43987;DHT22;29650;47.378;8.300;2023-11-19T03:03:19;7.80;99.90
43987;DHT22;29650;47.378;8.300;2023-11-19T03:05:48;7.80;99.90
43987;DHT22;29650;47.378;8.300;2023-11-19T03:08:16;7.80;99.90
43987;DHT22;29650;47.378;8.300;2023-11-19T03:10:43;7.80;99.90
43987;DHT22;29650;47.378;8.300;2023-11-19T03:13:12;7.80;99.90
43987;DHT22;29650;47.378;8.300;2023-11-19T03:15:39;7.80;99.90
43987;DHT22;29650;47.378;8.300;2023-11-19T03:18:07;7.90;99.90
43987;DHT22;29650;47.378;8.300;2023-11-19T03:20:35;7.80;99.90
43987;DHT22;29650;47.378;8.300;2023-11-19T03:23:02;7.80;99.90
43987;DHT22;29650;47.378;8.300;2023-11-19T03:25:28;7.80;99.90
43987;DHT22;29650;47.378;8.300;2023-11-19T03:27:59;7.70;99.90
43987;DHT22;29650;47.378;8.300;2023-11-19T03:30:27;7.80;99.90
43987;DHT22;29650;47.378;8.300;2023-11-19T03:32:55;7.80;99.90
43987;DHT22;29650;47.378;8.300;2023-11-19T03:35:22;7.80;99.90
43987;DHT22;29650;47.378;8.300;2023-11-19T03:37:51;7.80;99.90
43987;DHT22;29650;47.378;8.300;2023-11-19T03:40:18;7.90;99.90
43987;DHT22;29650;47.378;8.300;2023-11-19T03:42:45;7.90;99.90
43987;DHT22;29650;47.378;8.300;2023-11-19T03:45:13;7.80;99.90
43987;DHT22;29650;47.378;8.300;2023-11-19T03:47:41;7.90;99.90
43987;DHT22;29650;47.378;8.300;2023-11-19T03:50:08;7.90;99.90
43987;DHT22;29650;47.378;8.300;2023-11-19T03:52:35;7.90;99.90
43987;DHT22;29650;47.378;8.300;2023-11-19T03:55:04;8.00;99.90
43987;DHT22;29650;47.378;8.300;2023-11-19T03:57:34;7.90;99.90
43987;DHT22;29650;47.378;8.300;2023-11-19T04:00:01;7.90;99.90
43987;DHT22;29650;47.378;8.300;2023-11-19T04:02:34;7.90;99.90
43987;DHT22;29650;47.378;8.300;2023-11-19T04:05:01;7.90;99.90
43987;DHT22;29650;47.378;8.300;2023-11-19T04:07:28;8.00;99.90
43987;DHT22;29650;47.378;8.300;2023-11-19T04:09:55;8.00;99.90
43987;DHT22;29650;47.378;8.300;2023-11-19T04:12:24;8.10;99.90
43987;DHT22;29650;47.378;8.300;2023-11-19T04:14:51;8.30;99.90
43987;DHT22;29650;47.378;8.300;2023-11-19T04:17:18;8.50;99.90
43987;DHT22;29650;47.378;8.300;2023-11-19T04:19:45;8.70;99.90
43987;DHT22;29650;47.378;8.300;2023-11-19T04:22:12;8.80;99.90
43987;DHT22;29650;47.378;8.300;2023-11-19T04:24:38;9.00;99.90
43987;DHT22;29650;47.378;8.300;2023-11-19T04:27:06;9.10;99.90
43987;DHT22;29650;47.378;8.300;2023-11-19T04:29:34;9.10;99.90
43987;DHT22;29650;47.378;8.300;2023-11-19T04:32:02;9.00;99.90
43987;DHT22;29650;47.378;8.300;2023-11-19T04:34:31;9.10;99.90
43987;DHT22;29650;47.378;8.300;2023-11-19T04:36:57;9.00;99.90
43987;DHT22;29650;47.378;8.300;2023-11-19T04:39:27;9.00;99.90
43987;DHT22;29650;47.378;8.300;2023-11-19T04:41:54;9.00;99.90
43987;DHT22;29650;47.378;8.300;2023-11-19T04:44:21;9.00;99.90
43987;DHT22;29650;47.378;8.300;2023-11-19T04:46:50;9.00;99.90
43987;DHT22;29650;47.378;8.300;2023-11-19T04:49:17;9.00;99.90
43987;DHT22;29650;47.378;8.300;2023-11-19T04:51:45;9.10;99.90
43987;DHT22;29650;47.378;8.300;2023-11-19T04:54:13;9.10;99.90
43987;DHT22;29650;47.378;8.300;2023-11-19T04:56:40;9.00;99.90
43987;DHT22;29650;47.378;8.300;2023-11-19T04:59:11;9.00;99.90
43987;DHT22;29650;47.378;8.300;2023-11-19T05:01:38;9.00;99.90
43987;DHT22;29650;47.378;8.300;2023-11-19T05:04:07;9.20;99.90
43987;DHT22;29650;47.378;8.300;2023-11-19T05:06:34;9.20;99.90
43987;DHT22;29650;47.378;8.300;2023-11-19T05:09:01;9.40;99.90
43987;DHT22;29650;47.378;8.300;2023-11-19T05:11:30;9.50;99.90
43987;DHT22;29650;47.378;8.300;2023-11-19T05:13:58;9.60;99.90
43987;DHT22;29650;47.378;8.300;2023-11-19T05:16:25;9.40;99.90
43987;DHT22;29650;47.378;8.300;2023-11-19T05:18:52;9.60;99.90
43987;DHT22;29650;47.378;8.300;2023-11-19T05:21:20;9.60;99.90
43987;DHT22;29650;47.378;8.300;2023-11-19T05:23:47;9.50;99.90
43987;DHT22;29650;47.378;8.300;2023-11-19T05:26:18;9.50;99.90
43987;DHT22;29650;47.378;8.300;2023-11-19T05:28:46;9.60;99.90
43987;DHT22;29650;47.378;8.300;2023-11-19T05:31:13;9.90;99.90
43987;DHT22;29650;47.378;8.300;2023-11-19T05:33:40;10.00;99.90
43987;DHT22;29650;47.378;8.300;2023-11-19T05:36:08;10.00;99.90
43987;DHT22;29650;47.378;8.300;2023-11-19T05:38:36;10.00;99.90
43987;DHT22;29650;47.378;8.300;2023-11-19T05:41:04;10.10;99.90
43987;DHT22;29650;47.378;8.300;2023-11-19T05:43:31;10.00;99.90
43987;DHT22;29650;47.378;8.300;2023-11-19T05:45:58;10.20;99.90
43987;DHT22;29650;47.378;8.300;2023-11-19T05:48:27;10.20;99.90
43987;DHT22;29650;47.378;8.300;2023-11-19T05:50:54;10.20;99.90
43987;DHT22;29650;47.378;8.300;2023-11-19T05:53:21;10.20;99.90
43987;DHT22;29650;47.378;8.300;2023-11-19T05:55:50;10.30;99.90
43987;DHT22;29650;47.378;8.300;2023-11-19T05:58:23;10.30;99.90
43987;DHT22;29650;47.378;8.300;2023-11-19T06:00:51;10.30;99.90
43987;DHT22;29650;47.378;8.300;2023-11-19T06:03:18;10.40;99.90
43987;DHT22;29650;47.378;8.300;2023-11-19T06:05:47;10.40;99.90
43987;DHT22;29650;47.378;8.300;2023-11-19T06:08:14;10.70;99.90
43987;DHT22;29650;47.378;8.300;2023-11-19T06:10:42;10.70;99.90
43987;DHT22;29650;47.378;8.300;2023-11-19T06:13:13;10.70;99.90
43987;DHT22;29650;47.378;8.300;2023-11-19T06:15:41;10.90;99.90
43987;DHT22;29650;47.378;8.300;2023-11-19T06:18:08;11.10;99.90
43987;DHT22;29650;47.378;8.300;2023-11-19T06:20:35;10.90;99.90
43987;DHT22;29650;47.378;8.300;2023-11-19T06:23:02;10.90;99.90
43987;DHT22;29650;47.378;8.300;2023-11-19T06:25:29;10.90;99.90
43987;DHT22;29650;47.378;8.300;2023-11-19T06:27:56;11.10;99.90
43987;DHT22;29650;47.378;8.300;2023-11-19T06:30:25;11.10;99.90
43987;DHT22;29650;47.378;8.300;2023-11-19T06:32:53;11.10;99.90
43987;DHT22;29650;47.378;8.300;2023-11-19T06:35:21;11.10;99.90
43987;DHT22;29650;47.378;8.300;2023-11-19T06:37:48;11.40;99.90
43987;DHT22;29650;47.378;8.300;2023-11-19T06:40:15;11.40;99.90
43987;DHT22;29650;47.378;8.300;2023-11-19T06:42:42;11.30;99.90
43987;DHT22;29650;47.378;8.300;2023-11-19T06:45:09;11.30;99.90
43987;DHT22;29650;47.378;8.300;2023-11-19T06:47:37;11.20;99.90
43987;DHT22;29650;47.378;8.300;2023-11-19T06:50:06;11.20;99.90
43987;DHT22;29650;47.378;8.300;2023-11-19T06:52:33;11.20;99.90
43987;DHT22;29650;47.378;8.300;2023-11-19T06:55:00;11.20;99.90
43987;DHT22;29650;47.378;8.300;2023-11-19T06:57:27;11.30;99.90
43987;DHT22;29650;47.378;8.300;2023-11-19T06:59:55;11.10;99.90
43987;DHT22;29650;47.378;8.300;2023-11-19T07:02:22;11.10;99.90
43987;DHT22;29650;47.378;8.300;2023-11-19T07:04:50;11.40;99.90
43987;DHT22;29650;47.378;8.300;2023-11-19T07:07:17;11.30;99.90
43987;DHT22;29650;47.378;8.300;2023-11-19T07:09:45;11.20;99.90
43987;DHT22;29650;47.378;8.300;2023-11-19T07:12:13;11.20;99.90
43987;DHT22;29650;47.378;8.300;2023-11-19T07:14:41;11.30;99.90
43987;DHT22;29650;47.378;8.300;2023-11-19T07:17:08;11.30;99.90
43987;DHT22;29650;47.378;8.300;2023-11-19T07:19:35;11.00;99.90
43987;DHT22;29650;47.378;8.300;2023-11-19T07:22:06;11.30;99.90
43987;DHT22;29650;47.378;8.300;2023-11-19T07:24:32;11.50;99.90
43987;DHT22;29650;47.378;8.300;2023-11-19T07:26:59;11.40;99.90
43987;DHT22;29650;47.378;8.300;2023-11-19T07:29:29;11.40;99.90
43987;DHT22;29650;47.378;8.300;2023-11-19T07:31:56;11.30;99.90
43987;DHT22;29650;47.378;8.300;2023-11-19T07:34:23;11.50;99.90
43987;DHT22;29650;47.378;8.300;2023-11-19T07:36:50;11.40;99.90
43987;DHT22;29650;47.378;8.300;2023-11-19T07:39:19;11.40;99.90
43987;DHT22;29650;47.378;8.300;2023-11-19T07:41:46;11.50;99.90
43987;DHT22;29650;47.378;8.300;2023-11-19T07:44:13;11.40;99.90
43987;DHT22;29650;47.378;8.300;2023-11-19T07:46:40;11.40;99.90
43987;DHT22;29650;47.378;8.300;2023-11-19T07:49:08;11.40;99.90
43987;DHT22;29650;47.378;8.300;2023-11-19T07:51:35;11.40;99.90
43987;DHT22;29650;47.378;8.300;2023-11-19T07:54:02;11.50;99.90
43987;DHT22;29650;47.378;8.300;2023-11-19T07:56:32;11.50;99.90
43987;DHT22;29650;47.378;8.300;2023-11-19T07:58:59;11.40;99.90
43987;DHT22;29650;47.378;8.300;2023-11-19T08:01:27;11.50;99.90
43987;DHT22;29650;47.378;8.300;2023-11-19T08:03:53;11.50;99.90
43987;DHT22;29650;47.378;8.300;2023-11-19T08:06:21;11.50;99.90
43987;DHT22;29650;47.378;8.300;2023-11-19T08:08:48;11.50;99.90
43987;DHT22;29650;47.378;8.300;2023-11-19T08:11:15;11.40;99.90
43987;DHT22;29650;47.378;8.300;2023-11-19T08:13:43;11.50;99.90
43987;DHT22;29650;47.378;8.300;2023-11-19T08:16:10;11.50;99.90
43987;DHT22;29650;47.378;8.300;2023-11-19T08:18:37;11.50;99.90
43987;DHT22;29650;47.378;8.300;2023-11-19T08:21:04;11.50;99.90
43987;DHT22;29650;47.378;8.300;2023-11-19T08:23:32;11.40;99.90
43987;DHT22;29650;47.378;8.300;2023-11-19T08:25:59;11.50;99.90
43987;DHT22;29650;47.378;8.300;2023-11-19T08:28:26;11.60;99.90
43987;DHT22;29650;47.378;8.300;2023-11-19T08:30:55;11.60;99.90
43987;DHT22;29650;47.378;8.300;2023-11-19T08:33:22;11.60;99.90
43987;DHT22;29650;47.378;8.300;2023-11-19T08:35:49;11.80;99.90
43987;DHT22;29650;47.378;8.300;2023-11-19T08:38:16;11.70;99.90
43987;DHT22;29650;47.378;8.300;2023-11-19T08:40:43;11.70;99.90
43987;DHT22;29650;47.378;8.300;2023-11-19T08:43:10;11.70;99.90
43987;DHT22;29650;47.378;8.300;2023-11-19T08:45:37;11.70;99.90
43987;DHT22;29650;47.378;8.300;2023-11-19T08:48:05;11.70;99.90
43987;DHT22;29650;47.378;8.300;2023-11-19T08:50:32;11.70;99.90
43987;DHT22;29650;47.378;8.300;2023-11-19T08:53:00;11.70;99.90
43987;DHT22;29650;47.378;8.300;2023-11-19T08:55:27;11.70;99.90
43987;DHT22;29650;47.378;8.300;2023-11-19T08:57:54;11.90;99.90
43987;DHT22;29650;47.378;8.300;2023-11-19T09:00:22;11.90;99.90
43987;DHT22;29650;47.378;8.300;2023-11-19T09:02:49;11.90;99.90
43987;DHT22;29650;47.378;8.300;2023-11-19T09:05:17;11.90;99.90
43987;DHT22;29650;47.378;8.300;2023-11-19T09:07:44;12.00;99.90
43987;DHT22;29650;47.378;8.300;2023-11-19T09:10:11;12.10;99.90
43987;DHT22;29650;47.378;8.300;2023-11-19T09:12:38;12.00;99.90
43987;DHT22;29650;47.378;8.300;2023-11-19T09:15:06;12.10;99.90
43987;DHT22;29650;47.378;8.300;2023-11-19T09:17:35;12.00;99.90
43987;DHT22;29650;47.378;8.300;2023-11-19T09:20:03;12.00;99.90
43987;DHT22;29650;47.378;8.300;2023-11-19T09:22:31;12.00;99.90
43987;DHT22;29650;47.378;8.300;2023-11-19T09:24:58;12.00;99.90
43987;DHT22;29650;47.378;8.300;2023-11-19T09:27:26;12.10;99.90
43987;DHT22;29650;47.378;8.300;2023-11-19T09:29:53;12.20;99.90
43987;DHT22;29650;47.378;8.300;2023-11-19T09:32:23;12.20;99.90
43987;DHT22;29650;47.378;8.300;2023-11-19T09:34:50;12.20;99.90
43987;DHT22;29650;47.378;8.300;2023-11-19T09:37:17;12.20;99.90
43987;DHT22;29650;47.378;8.300;2023-11-19T09:39:45;12.30;99.90
43987;DHT22;29650;47.378;8.300;2023-11-19T09:42:12;12.30;99.90
43987;DHT22;29650;47.378;8.300;2023-11-19T09:44:40;12.40;99.90
43987;DHT22;29650;47.378;8.300;2023-11-19T09:47:11;12.30;99.90
43987;DHT22;29650;47.378;8.300;2023-11-19T09:49:38;12.40;99.90
43987;DHT22;29650;47.378;8.300;2023-11-19T09:52:05;12.40;99.90
43987;DHT22;29650;47.378;8.300;2023-11-19T09:54:33;12.40;99.90
43987;DHT22;29650;47.378;8.300;2023-11-19T09:57:02;12.30;99.90
43987;DHT22;29650;47.378;8.300;2023-11-19T09:59:29;12.50;99.90
43987;DHT22;29650;47.378;8.300;2023-11-19T10:01:57;12.40;99.90
43987;DHT22;29650;47.378;8.300;2023-11-19T10:04:24;12.40;99.90
43987;DHT22;29650;47.378;8.300;2023-11-19T10:06:52;12.30;99.90
43987;DHT22;29650;47.378;8.300;2023-11-19T10:09:19;12.30;99.90
43987;DHT22;29650;47.378;8.300;2023-11-19T10:11:46;12.40;99.90
43987;DHT22;29650;47.378;8.300;2023-11-19T10:14:15;12.40;99.90
43987;DHT22;29650;47.378;8.300;2023-11-19T10:16:45;12.40;99.90
43987;DHT22;29650;47.378;8.300;2023-11-19T10:19:20;12.40;99.90
43987;DHT22;29650;47.378;8.300;2023-11-19T10:21:47;12.40;99.90
43987;DHT22;29650;47.378;8.300;2023-11-19T10:24:14;12.60;99.90
43987;DHT22;29650;47.378;8.300;2023-11-19T10:26:41;12.60;99.90
43987;DHT22;29650;47.378;8.300;2023-11-19T10:29:08;12.80;99.90
43987;DHT22;29650;47.378;8.300;2023-11-19T10:31:40;12.80;99.90
43987;DHT22;29650;47.378;8.300;2023-11-19T10:34:24;12.80;99.90
43987;DHT22;29650;47.378;8.300;2023-11-19T10:36:51;12.70;99.90
43987;DHT22;29650;47.378;8.300;2023-11-19T10:39:18;12.70;99.90
43987;DHT22;29650;47.378;8.300;2023-11-19T10:41:46;12.70;99.90
43987;DHT22;29650;47.378;8.300;2023-11-19T10:44:31;12.70;99.90
43987;DHT22;29650;47.378;8.300;2023-11-19T10:47:00;12.70;99.90
43987;DHT22;29650;47.378;8.300;2023-11-19T10:49:27;12.70;99.90
43987;DHT22;29650;47.378;8.300;2023-11-19T10:51:55;12.70;99.90
43987;DHT22;29650;47.378;8.300;2023-11-19T10:54:24;12.70;99.90
43987;DHT22;29650;47.378;8.300;2023-11-19T10:56:55;12.70;99.90
43987;DHT22;29650;47.378;8.300;2023-11-19T10:59:27;12.70;99.90
43987;DHT22;29650;47.378;8.300;2023-11-19T11:01:56;12.70;99.90
43987;DHT22;29650;47.378;8.300;2023-11-19T11:04:25;12.70;99.90
43987;DHT22;29650;47.378;8.300;2023-11-19T11:06:54;12.70;99.90
43987;DHT22;29650;47.378;8.300;2023-11-19T11:09:23;12.70;99.90
43987;DHT22;29650;47.378;8.300;2023-11-19T11:11:50;12.80;99.90
43987;DHT22;29650;47.378;8.300;2023-11-19T11:14:20;12.80;99.90
43987;DHT22;29650;47.378;8.300;2023-11-19T11:16:48;12.90;99.90
43987;DHT22;29650;47.378;8.300;2023-11-19T11:19:16;12.90;99.90
43987;DHT22;29650;47.378;8.300;2023-11-19T11:21:53;12.90;99.90
43987;DHT22;29650;47.378;8.300;2023-11-19T11:30:31;12.90;99.90
43987;DHT22;29650;47.378;8.300;2023-11-19T11:33:10;12.90;99.90
43987;DHT22;29650;47.378;8.300;2023-11-19T11:35:49;12.80;99.90
43987;DHT22;29650;47.378;8.300;2023-11-19T11:38:22;12.80;99.90
43987;DHT22;29650;47.378;8.300;2023-11-19T11:41:20;12.80;99.90
43987;DHT22;29650;47.378;8.300;2023-11-19T11:43:48;12.80;99.90
43987;DHT22;29650;47.378;8.300;2023-11-19T11:46:53;12.90;99.90
43987;DHT22;29650;47.378;8.300;2023-11-19T11:49:27;12.80;99.90
43987;DHT22;29650;47.378;8.300;2023-11-19T11:52:03;12.80;99.90
43987;DHT22;29650;47.378;8.300;2023-11-19T11:54:32;12.70;99.90
43987;DHT22;29650;47.378;8.300;2023-11-19T11:57:06;12.80;99.90
43987;DHT22;29650;47.378;8.300;2023-11-19T11:59:43;12.80;99.90
43987;DHT22;29650;47.378;8.300;2023-11-19T12:02:11;12.90;99.90
43987;DHT22;29650;47.378;8.300;2023-11-19T12:04:39;13.00;99.90
43987;DHT22;29650;47.378;8.300;2023-11-19T12:07:08;13.00;99.90
43987;DHT22;29650;47.378;8.300;2023-11-19T12:09:40;13.10;99.90
43987;DHT22;29650;47.378;8.300;2023-11-19T12:15:16;13.30;99.90
43987;DHT22;29650;47.378;8.300;2023-11-19T12:17:48;13.50;99.90
43987;DHT22;29650;47.378;8.300;2023-11-19T12:20:16;13.50;99.90
43987;DHT22;29650;47.378;8.300;2023-11-19T12:22:45;13.60;99.90
43987;DHT22;29650;47.378;8.300;2023-11-19T12:25:13;13.50;99.90
43987;DHT22;29650;47.378;8.300;2023-11-19T12:27:43;13.50;99.90
43987;DHT22;29650;47.378;8.300;2023-11-19T12:30:10;13.50;99.90
43987;DHT22;29650;47.378;8.300;2023-11-19T12:32:39;13.40;99.90
43987;DHT22;29650;47.378;8.300;2023-11-19T12:35:07;13.40;99.90
43987;DHT22;29650;47.378;8.300;2023-11-19T12:37:40;13.40;99.90
43987;DHT22;29650;47.378;8.300;2023-11-19T12:40:14;13.40;99.90
43987;DHT22;29650;47.378;8.300;2023-11-19T12:42:41;13.50;99.90
43987;DHT22;29650;47.378;8.300;2023-11-19T12:45:09;13.50;99.90
43987;DHT22;29650;47.378;8.300;2023-11-19T12:47:38;13.60;99.90
43987;DHT22;29650;47.378;8.300;2023-11-19T12:50:06;13.60;99.90
43987;DHT22;29650;47.378;8.300;2023-11-19T12:52:34;13.70;99.90
43987;DHT22;29650;47.378;8.300;2023-11-19T12:55:01;13.70;99.90
43987;DHT22;29650;47.378;8.300;2023-11-19T12:57:40;13.70;99.90
43987;DHT22;29650;47.378;8.300;2023-11-19T13:00:17;13.80;99.90
43987;DHT22;29650;47.378;8.300;2023-11-19T13:02:46;13.70;99.90
43987;DHT22;29650;47.378;8.300;2023-11-19T13:05:25;13.80;99.90
43987;DHT22;29650;47.378;8.300;2023-11-19T13:07:58;13.80;99.90
43987;DHT22;29650;47.378;8.300;2023-11-19T13:10:26;13.80;99.90
43987;DHT22;29650;47.378;8.300;2023-11-19T13:13:02;13.80;99.90
43987;DHT22;29650;47.378;8.300;2023-11-19T13:15:30;13.90;99.90
43987;DHT22;29650;47.378;8.300;2023-11-19T13:17:57;13.90;99.90
43987;DHT22;29650;47.378;8.300;2023-11-19T13:20:25;13.80;99.90
43987;DHT22;29650;47.378;8.300;2023-11-19T13:22:59;13.80;99.90
43987;DHT22;29650;47.378;8.300;2023-11-19T13:25:27;13.80;99.90
43987;DHT22;29650;47.378;8.300;2023-11-19T13:27:55;13.70;99.90
43987;DHT22;29650;47.378;8.300;2023-11-19T13:30:24;13.70;99.90
43987;DHT22;29650;47.378;8.300;2023-11-19T13:32:52;13.70;99.90
43987;DHT22;29650;47.378;8.300;2023-11-19T13:35:21;13.80;99.90
43987;DHT22;29650;47.378;8.300;2023-11-19T13:37:48;13.70;99.90
43987;DHT22;29650;47.378;8.300;2023-11-19T13:40:15;13.70;99.90
43987;DHT22;29650;47.378;8.300;2023-11-19T13:42:43;13.70;99.90
43987;DHT22;29650;47.378;8.300;2023-11-19T13:45:10;13.70;99.90
43987;DHT22;29650;47.378;8.300;2023-11-19T13:47:41;13.70;99.90
43987;DHT22;29650;47.378;8.300;2023-11-19T13:50:09;13.70;99.90
43987;DHT22;29650;47.378;8.300;2023-11-19T13:52:36;13.80;99.90
43987;DHT22;29650;47.378;8.300;2023-11-19T13:55:06;13.70;99.90
43987;DHT22;29650;47.378;8.300;2023-11-19T13:57:34;13.80;99.90
43987;DHT22;29650;47.378;8.300;2023-11-19T14:00:01;13.80;99.90
43987;DHT22;29650;47.378;8.300;2023-11-19T14:02:31;13.80;99.90
43987;DHT22;29650;47.378;8.300;2023-11-19T14:04:59;13.80;99.90
43987;DHT22;29650;47.378;8.300;2023-11-19T14:07:26;13.80;99.90
43987;DHT22;29650;47.378;8.300;2023-11-19T14:09:54;13.90;99.90
43987;DHT22;29650;47.378;8.300;2023-11-19T14:12:21;13.90;99.90
43987;DHT22;29650;47.378;8.300;2023-11-19T14:14:48;13.80;99.90
43987;DHT22;29650;47.378;8.300;2023-11-19T14:17:15;13.80;99.90
43987;DHT22;29650;47.378;8.300;2023-11-19T14:19:42;13.80;99.90
43987;DHT22;29650;47.378;8.300;2023-11-19T14:22:11;13.70;99.90
43987;DHT22;29650;47.378;8.300;2023-11-19T14:24:38;13.70;99.90
43987;DHT22;29650;47.378;8.300;2023-11-19T14:27:06;13.70;99.90
43987;DHT22;29650;47.378;8.300;2023-11-19T14:29:33;13.70;99.90
43987;DHT22;29650;47.378;8.300;2023-11-19T14:32:00;13.70;99.90
43987;DHT22;29650;47.378;8.300;2023-11-19T14:34:28;13.70;99.90
43987;DHT22;29650;47.378;8.300;2023-11-19T14:36:55;13.80;99.90
43987;DHT22;29650;47.378;8.300;2023-11-19T14:39:24;13.70;99.90
43987;DHT22;29650;47.378;8.300;2023-11-19T14:41:51;13.70;99.90
43987;DHT22;29650;47.378;8.300;2023-11-19T14:44:19;13.60;99.90
43987;DHT22;29650;47.378;8.300;2023-11-19T14:46:46;13.60;99.90
43987;DHT22;29650;47.378;8.300;2023-11-19T14:49:13;13.60;99.90
43987;DHT22;29650;47.378;8.300;2023-11-19T14:51:41;13.50;99.90
43987;DHT22;29650;47.378;8.300;2023-11-19T14:54:08;13.60;99.90
43987;DHT22;29650;47.378;8.300;2023-11-19T14:56:36;13.60;99.90
43987;DHT22;29650;47.378;8.300;2023-11-19T14:59:04;13.50;99.90
43987;DHT22;29650;47.378;8.300;2023-11-19T15:01:31;13.50;99.90
43987;DHT22;29650;47.378;8.300;2023-11-19T15:03:58;13.50;99.90
43987;DHT22;29650;47.378;8.300;2023-11-19T15:06:26;13.50;99.90
43987;DHT22;29650;47.378;8.300;2023-11-19T15:08:53;13.50;99.90
43987;DHT22;29650;47.378;8.300;2023-11-19T15:11:21;13.40;99.90
43987;DHT22;29650;47.378;8.300;2023-11-19T15:13:50;13.40;99.90
43987;DHT22;29650;47.378;8.300;2023-11-19T15:16:17;13.40;99.90
43987;DHT22;29650;47.378;8.300;2023-11-19T15:18:50;13.40;99.90
43987;DHT22;29650;47.378;8.300;2023-11-19T15:21:17;13.40;99.90
43987;DHT22;29650;47.378;8.300;2023-11-19T15:23:44;13.30;99.90
43987;DHT22;29650;47.378;8.300;2023-11-19T15:26:11;13.40;99.90
43987;DHT22;29650;47.378;8.300;2023-11-19T15:28:39;13.30;99.90
43987;DHT22;29650;47.378;8.300;2023-11-19T15:31:07;13.30;99.90
43987;DHT22;29650;47.378;8.300;2023-11-19T15:33:35;13.30;99.90
43987;DHT22;29650;47.378;8.300;2023-11-19T15:36:03;13.30;99.90
43987;DHT22;29650;47.378;8.300;2023-11-19T15:38:33;13.30;99.90
43987;DHT22;29650;47.378;8.300;2023-11-19T15:41:00;13.30;99.90
43987;DHT22;29650;47.378;8.300;2023-11-19T15:43:27;13.30;99.90
43987;DHT22;29650;47.378;8.300;2023-11-19T15:45:54;13.30;99.90
43987;DHT22;29650;47.378;8.300;2023-11-19T15:48:23;13.40;99.90
43987;DHT22;29650;47.378;8.300;2023-11-19T15:50:51;13.30;99.90